sensor_id;sensor_type;location;lat;lon;timestamp;P1;durP1;ratioP1;P2;durP2;ratioP2
68273;SDS011;55104;47.356;19.448;2022-09-09T00:02:52;8.35;;;2.50;;
68273;SDS011;55104;47.356;19.448;2022-09-09T00:09:12;7.40;;;2.30;;
68273;SDS011;55104;47.356;19.448;2022-09-09T00:12:22;7.23;;;2.50;;
68273;SDS011;55104;47.356;19.448;2022-09-09T00:25:03;6.57;;;2.80;;
68273;SDS011;55104;47.356;19.448;2022-09-09T00:28:18;6.00;;;2.13;;
68273;SDS011;55104;47.356;19.448;2022-09-09T00:31:28;5.93;;;2.30;;
68273;SDS011;55104;47.356;19.448;2022-09-09T00:34:31;6.53;;;2.40;;
68273;SDS011;55104;47.356;19.448;2022-09-09T00:37:34;7.03;;;2.40;;
68273;SDS011;55104;47.356;19.448;2022-09-09T00:40:39;6.20;;;2.33;;
68273;SDS011;55104;47.356;19.448;2022-09-09T00:57:29;5.85;;;2.05;;
68273;SDS011;55104;47.356;19.448;2022-09-09T01:00:35;6.90;;;2.40;;
68273;SDS011;55104;47.356;19.448;2022-09-09T01:03:52;6.13;;;1.93;;
68273;SDS011;55104;47.356;19.448;2022-09-09T01:06:56;5.30;;;1.90;;
68273;SDS011;55104;47.356;19.448;2022-09-09T01:10:21;5.97;;;2.05;;
68273;SDS011;55104;47.356;19.448;2022-09-09T01:13:33;7.38;;;2.00;;
68273;SDS011;55104;47.356;19.448;2022-09-09T01:16:42;6.27;;;1.80;;
68273;SDS011;55104;47.356;19.448;2022-09-09T01:23:34;6.60;;;1.80;;
68273;SDS011;55104;47.356;19.448;2022-09-09T01:26:56;5.70;;;1.58;;
68273;SDS011;55104;47.356;19.448;2022-09-09T01:30:05;4.80;;;1.83;;
68273;SDS011;55104;47.356;19.448;2022-09-09T01:33:15;4.93;;;1.47;;
68273;SDS011;55104;47.356;19.448;2022-09-09T01:36:33;7.00;;;1.67;;
68273;SDS011;55104;47.356;19.448;2022-09-09T01:39:42;4.85;;;1.60;;
68273;SDS011;55104;47.356;19.448;2022-09-09T01:42:49;4.97;;;1.35;;
68273;SDS011;55104;47.356;19.448;2022-09-09T01:45:56;5.30;;;1.65;;
68273;SDS011;55104;47.356;19.448;2022-09-09T01:49:03;4.47;;;1.37;;
68273;SDS011;55104;47.356;19.448;2022-09-09T01:52:09;4.67;;;1.50;;
68273;SDS011;55104;47.356;19.448;2022-09-09T01:55:13;4.22;;;1.45;;
68273;SDS011;55104;47.356;19.448;2022-09-09T01:58:21;6.00;;;1.60;;
68273;SDS011;55104;47.356;19.448;2022-09-09T02:04:55;6.20;;;1.97;;
68273;SDS011;55104;47.356;19.448;2022-09-09T02:08:23;5.17;;;1.67;;
68273;SDS011;55104;47.356;19.448;2022-09-09T02:11:37;5.93;;;1.90;;
68273;SDS011;55104;47.356;19.448;2022-09-09T02:14:49;5.38;;;1.63;;
68273;SDS011;55104;47.356;19.448;2022-09-09T02:18:21;5.40;;;1.60;;
68273;SDS011;55104;47.356;19.448;2022-09-09T02:21:32;5.10;;;1.43;;
68273;SDS011;55104;47.356;19.448;2022-09-09T02:24:37;5.60;;;1.87;;
68273;SDS011;55104;47.356;19.448;2022-09-09T02:27:52;4.82;;;1.58;;
68273;SDS011;55104;47.356;19.448;2022-09-09T02:30:55;5.88;;;2.05;;
68273;SDS011;55104;47.356;19.448;2022-09-09T02:34:05;5.85;;;1.75;;
68273;SDS011;55104;47.356;19.448;2022-09-09T02:37:12;6.70;;;1.70;;
68273;SDS011;55104;47.356;19.448;2022-09-09T02:40:23;5.80;;;1.67;;
68273;SDS011;55104;47.356;19.448;2022-09-09T02:43:33;5.70;;;1.70;;
68273;SDS011;55104;47.356;19.448;2022-09-09T02:53:10;5.33;;;1.77;;
68273;SDS011;55104;47.356;19.448;2022-09-09T02:56:23;4.90;;;1.57;;
68273;SDS011;55104;47.356;19.448;2022-09-09T02:59:30;5.93;;;2.10;;
68273;SDS011;55104;47.356;19.448;2022-09-09T03:02:32;8.13;;;1.70;;
68273;SDS011;55104;47.356;19.448;2022-09-09T03:05:39;5.20;;;1.80;;
68273;SDS011;55104;47.356;19.448;2022-09-09T03:08:45;7.63;;;1.87;;
68273;SDS011;55104;47.356;19.448;2022-09-09T03:11:53;5.33;;;1.73;;
68273;SDS011;55104;47.356;19.448;2022-09-09T03:14:57;7.25;;;1.70;;
68273;SDS011;55104;47.356;19.448;2022-09-09T03:17:59;5.50;;;1.83;;
68273;SDS011;55104;47.356;19.448;2022-09-09T03:21:02;5.70;;;2.00;;
68273;SDS011;55104;47.356;19.448;2022-09-09T03:24:04;6.40;;;2.40;;
68273;SDS011;55104;47.356;19.448;2022-09-09T03:27:08;7.60;;;2.03;;
68273;SDS011;55104;47.356;19.448;2022-09-09T03:30:12;8.05;;;2.33;;
68273;SDS011;55104;47.356;19.448;2022-09-09T03:33:16;6.00;;;2.08;;
68273;SDS011;55104;47.356;19.448;2022-09-09T03:36:20;5.82;;;2.10;;
68273;SDS011;55104;47.356;19.448;2022-09-09T03:39:22;8.40;;;2.30;;
68273;SDS011;55104;47.356;19.448;2022-09-09T03:42:25;6.00;;;2.40;;
68273;SDS011;55104;47.356;19.448;2022-09-09T03:45:29;6.18;;;2.30;;
68273;SDS011;55104;47.356;19.448;2022-09-09T03:48:32;9.05;;;2.42;;
68273;SDS011;55104;47.356;19.448;2022-09-09T03:51:34;7.15;;;2.55;;
68273;SDS011;55104;47.356;19.448;2022-09-09T03:54:39;7.03;;;2.50;;
68273;SDS011;55104;47.356;19.448;2022-09-09T03:57:43;6.87;;;2.50;;
68273;SDS011;55104;47.356;19.448;2022-09-09T04:00:58;5.72;;;2.28;;
68273;SDS011;55104;47.356;19.448;2022-09-09T04:04:04;7.47;;;2.65;;
68273;SDS011;55104;47.356;19.448;2022-09-09T04:07:07;8.18;;;2.95;;
68273;SDS011;55104;47.356;19.448;2022-09-09T04:10:09;6.23;;;2.60;;
68273;SDS011;55104;47.356;19.448;2022-09-09T04:13:14;6.57;;;2.30;;
68273;SDS011;55104;47.356;19.448;2022-09-09T04:16:17;7.75;;;3.17;;
68273;SDS011;55104;47.356;19.448;2022-09-09T04:19:20;8.38;;;2.85;;
68273;SDS011;55104;47.356;19.448;2022-09-09T04:22:23;6.82;;;2.85;;
68273;SDS011;55104;47.356;19.448;2022-09-09T04:25:25;7.13;;;2.93;;
68273;SDS011;55104;47.356;19.448;2022-09-09T04:28:31;6.72;;;2.58;;
68273;SDS011;55104;47.356;19.448;2022-09-09T04:31:35;8.40;;;2.72;;
68273;SDS011;55104;47.356;19.448;2022-09-09T04:34:38;9.32;;;2.85;;
68273;SDS011;55104;47.356;19.448;2022-09-09T04:37:39;7.40;;;3.00;;
68273;SDS011;55104;47.356;19.448;2022-09-09T04:40:49;7.60;;;3.10;;
68273;SDS011;55104;47.356;19.448;2022-09-09T04:43:53;6.60;;;2.70;;
68273;SDS011;55104;47.356;19.448;2022-09-09T04:46:56;9.13;;;3.15;;
68273;SDS011;55104;47.356;19.448;2022-09-09T04:49:58;7.40;;;2.97;;
68273;SDS011;55104;47.356;19.448;2022-09-09T04:53:01;6.82;;;2.72;;
68273;SDS011;55104;47.356;19.448;2022-09-09T04:56:07;7.10;;;2.77;;
68273;SDS011;55104;47.356;19.448;2022-09-09T04:59:15;7.87;;;3.23;;
68273;SDS011;55104;47.356;19.448;2022-09-09T05:02:21;7.78;;;2.67;;
68273;SDS011;55104;47.356;19.448;2022-09-09T05:05:24;7.75;;;2.88;;
68273;SDS011;55104;47.356;19.448;2022-09-09T05:08:27;9.27;;;3.05;;
68273;SDS011;55104;47.356;19.448;2022-09-09T05:11:30;7.27;;;3.20;;
68273;SDS011;55104;47.356;19.448;2022-09-09T05:14:57;6.82;;;2.90;;
68273;SDS011;55104;47.356;19.448;2022-09-09T05:17:59;6.13;;;2.70;;
68273;SDS011;55104;47.356;19.448;2022-09-09T05:21:04;6.60;;;2.75;;
68273;SDS011;55104;47.356;19.448;2022-09-09T05:24:07;7.05;;;3.20;;
68273;SDS011;55104;47.356;19.448;2022-09-09T05:27:10;8.60;;;3.07;;
68273;SDS011;55104;47.356;19.448;2022-09-09T05:30:14;7.03;;;3.20;;
68273;SDS011;55104;47.356;19.448;2022-09-09T05:33:16;7.05;;;3.00;;
68273;SDS011;55104;47.356;19.448;2022-09-09T05:36:19;7.50;;;3.55;;
68273;SDS011;55104;47.356;19.448;2022-09-09T05:39:26;8.23;;;3.75;;
68273;SDS011;55104;47.356;19.448;2022-09-09T05:42:32;8.53;;;3.93;;
68273;SDS011;55104;47.356;19.448;2022-09-09T05:45:34;8.43;;;4.23;;
68273;SDS011;55104;47.356;19.448;2022-09-09T05:48:39;9.25;;;4.07;;
68273;SDS011;55104;47.356;19.448;2022-09-09T05:51:42;8.20;;;3.60;;
68273;SDS011;55104;47.356;19.448;2022-09-09T05:54:47;8.02;;;3.40;;
68273;SDS011;55104;47.356;19.448;2022-09-09T05:57:49;8.97;;;3.80;;
68273;SDS011;55104;47.356;19.448;2022-09-09T06:00:51;7.85;;;3.90;;
68273;SDS011;55104;47.356;19.448;2022-09-09T06:03:53;12.02;;;4.60;;
68273;SDS011;55104;47.356;19.448;2022-09-09T06:06:57;9.05;;;4.57;;
68273;SDS011;55104;47.356;19.448;2022-09-09T06:10:04;7.85;;;4.30;;
68273;SDS011;55104;47.356;19.448;2022-09-09T06:13:08;9.10;;;4.10;;
68273;SDS011;55104;47.356;19.448;2022-09-09T06:16:16;8.53;;;3.40;;
68273;SDS011;55104;47.356;19.448;2022-09-09T06:19:19;6.55;;;3.08;;
68273;SDS011;55104;47.356;19.448;2022-09-09T06:22:23;8.00;;;3.13;;
68273;SDS011;55104;47.356;19.448;2022-09-09T06:25:25;7.00;;;3.40;;
68273;SDS011;55104;47.356;19.448;2022-09-09T06:28:28;7.73;;;3.30;;
68273;SDS011;55104;47.356;19.448;2022-09-09T06:31:31;6.70;;;2.90;;
68273;SDS011;55104;47.356;19.448;2022-09-09T06:34:41;8.20;;;3.25;;
68273;SDS011;55104;47.356;19.448;2022-09-09T06:37:44;6.72;;;2.90;;
68273;SDS011;55104;47.356;19.448;2022-09-09T06:40:53;9.23;;;2.88;;
68273;SDS011;55104;47.356;19.448;2022-09-09T06:43:57;6.17;;;2.63;;
68273;SDS011;55104;47.356;19.448;2022-09-09T06:47:08;7.73;;;3.13;;
68273;SDS011;55104;47.356;19.448;2022-09-09T06:50:11;7.78;;;4.15;;
68273;SDS011;55104;47.356;19.448;2022-09-09T06:53:15;8.68;;;2.95;;
68273;SDS011;55104;47.356;19.448;2022-09-09T06:56:20;6.70;;;2.60;;
68273;SDS011;55104;47.356;19.448;2022-09-09T06:59:28;5.60;;;2.60;;
68273;SDS011;55104;47.356;19.448;2022-09-09T07:02:33;9.03;;;3.60;;
68273;SDS011;55104;47.356;19.448;2022-09-09T07:05:41;6.22;;;2.53;;
68273;SDS011;55104;47.356;19.448;2022-09-09T07:08:43;10.20;;;2.72;;
68273;SDS011;55104;47.356;19.448;2022-09-09T07:12:00;7.15;;;2.50;;
68273;SDS011;55104;47.356;19.448;2022-09-09T07:15:07;7.57;;;3.00;;
68273;SDS011;55104;47.356;19.448;2022-09-09T07:18:12;6.87;;;2.30;;
68273;SDS011;55104;47.356;19.448;2022-09-09T07:21:14;5.75;;;2.40;;
68273;SDS011;55104;47.356;19.448;2022-09-09T07:24:17;6.00;;;2.60;;
68273;SDS011;55104;47.356;19.448;2022-09-09T07:27:20;5.75;;;2.22;;
68273;SDS011;55104;47.356;19.448;2022-09-09T07:30:24;8.33;;;2.60;;
68273;SDS011;55104;47.356;19.448;2022-09-09T07:33:30;6.77;;;2.10;;
68273;SDS011;55104;47.356;19.448;2022-09-09T07:36:38;5.07;;;1.80;;
68273;SDS011;55104;47.356;19.448;2022-09-09T07:39:43;6.05;;;1.90;;
68273;SDS011;55104;47.356;19.448;2022-09-09T07:42:46;7.30;;;2.10;;
68273;SDS011;55104;47.356;19.448;2022-09-09T07:45:56;5.90;;;2.20;;
68273;SDS011;55104;47.356;19.448;2022-09-09T07:49:00;5.33;;;2.10;;
68273;SDS011;55104;47.356;19.448;2022-09-09T07:52:03;7.05;;;2.25;;
68273;SDS011;55104;47.356;19.448;2022-09-09T07:55:06;5.03;;;1.90;;
68273;SDS011;55104;47.356;19.448;2022-09-09T07:58:09;5.68;;;1.77;;
68273;SDS011;55104;47.356;19.448;2022-09-09T08:01:15;4.50;;;1.10;;
68273;SDS011;55104;47.356;19.448;2022-09-09T08:04:23;4.73;;;1.60;;
68273;SDS011;55104;47.356;19.448;2022-09-09T08:07:27;5.03;;;1.48;;
68273;SDS011;55104;47.356;19.448;2022-09-09T08:10:30;4.15;;;1.38;;
68273;SDS011;55104;47.356;19.448;2022-09-09T08:13:33;4.07;;;1.50;;
68273;SDS011;55104;47.356;19.448;2022-09-09T08:16:43;3.87;;;1.40;;
68273;SDS011;55104;47.356;19.448;2022-09-09T08:19:50;3.97;;;1.30;;
68273;SDS011;55104;47.356;19.448;2022-09-09T08:22:57;4.72;;;1.75;;
68273;SDS011;55104;47.356;19.448;2022-09-09T08:26:06;6.22;;;1.73;;
68273;SDS011;55104;47.356;19.448;2022-09-09T08:29:16;4.40;;;1.50;;
68273;SDS011;55104;47.356;19.448;2022-09-09T08:32:22;5.50;;;1.40;;
68273;SDS011;55104;47.356;19.448;2022-09-09T08:35:24;4.97;;;1.50;;
68273;SDS011;55104;47.356;19.448;2022-09-09T08:38:27;4.05;;;1.40;;
68273;SDS011;55104;47.356;19.448;2022-09-09T08:48:21;3.63;;;1.23;;
68273;SDS011;55104;47.356;19.448;2022-09-09T08:51:46;4.27;;;1.20;;
68273;SDS011;55104;47.356;19.448;2022-09-09T08:54:51;4.38;;;1.08;;
68273;SDS011;55104;47.356;19.448;2022-09-09T08:57:56;3.50;;;1.08;;
68273;SDS011;55104;47.356;19.448;2022-09-09T09:08:25;3.20;;;1.17;;
68273;SDS011;55104;47.356;19.448;2022-09-09T09:11:36;3.55;;;1.05;;
68273;SDS011;55104;47.356;19.448;2022-09-09T09:14:40;2.55;;;0.88;;
68273;SDS011;55104;47.356;19.448;2022-09-09T09:17:46;3.33;;;1.10;;
68273;SDS011;55104;47.356;19.448;2022-09-09T09:21:32;3.10;;;0.83;;
68273;SDS011;55104;47.356;19.448;2022-09-09T09:24:18;4.93;;;1.83;;
68273;SDS011;55104;47.356;19.448;2022-09-09T09:31:11;3.42;;;1.15;;
68273;SDS011;55104;47.356;19.448;2022-09-09T09:34:21;3.25;;;1.00;;
68273;SDS011;55104;47.356;19.448;2022-09-09T09:37:27;3.97;;;1.20;;
68273;SDS011;55104;47.356;19.448;2022-09-09T09:40:35;5.50;;;1.13;;
68273;SDS011;55104;47.356;19.448;2022-09-09T09:43:39;2.97;;;0.80;;
68273;SDS011;55104;47.356;19.448;2022-09-09T09:46:49;4.10;;;0.88;;
68273;SDS011;55104;47.356;19.448;2022-09-09T09:49:54;3.40;;;1.10;;
68273;SDS011;55104;47.356;19.448;2022-09-09T09:53:04;3.80;;;1.27;;
68273;SDS011;55104;47.356;19.448;2022-09-09T09:56:12;2.53;;;0.80;;
68273;SDS011;55104;47.356;19.448;2022-09-09T09:59:32;4.25;;;0.90;;
68273;SDS011;55104;47.356;19.448;2022-09-09T10:02:47;2.95;;;1.00;;
68273;SDS011;55104;47.356;19.448;2022-09-09T10:05:55;2.55;;;0.80;;
68273;SDS011;55104;47.356;19.448;2022-09-09T10:08:58;3.27;;;0.90;;
68273;SDS011;55104;47.356;19.448;2022-09-09T10:19:08;3.55;;;0.80;;
68273;SDS011;55104;47.356;19.448;2022-09-09T10:22:13;2.92;;;0.88;;
68273;SDS011;55104;47.356;19.448;2022-09-09T10:25:33;3.00;;;1.00;;
68273;SDS011;55104;47.356;19.448;2022-09-09T10:29:02;3.93;;;0.80;;
68273;SDS011;55104;47.356;19.448;2022-09-09T10:35:49;2.53;;;0.70;;
68273;SDS011;55104;47.356;19.448;2022-09-09T10:39:04;2.72;;;0.85;;
68273;SDS011;55104;47.356;19.448;2022-09-09T10:42:15;3.20;;;0.80;;
68273;SDS011;55104;47.356;19.448;2022-09-09T10:45:31;3.10;;;1.00;;
68273;SDS011;55104;47.356;19.448;2022-09-09T10:52:20;3.53;;;0.70;;
68273;SDS011;55104;47.356;19.448;2022-09-09T10:55:35;4.07;;;0.80;;
68273;SDS011;55104;47.356;19.448;2022-09-09T10:58:43;1.90;;;0.60;;
68273;SDS011;55104;47.356;19.448;2022-09-09T11:01:59;2.20;;;0.70;;
68273;SDS011;55104;47.356;19.448;2022-09-09T11:05:24;1.83;;;0.50;;
68273;SDS011;55104;47.356;19.448;2022-09-09T11:08:38;3.70;;;0.68;;
68273;SDS011;55104;47.356;19.448;2022-09-09T11:11:53;2.40;;;0.70;;
68273;SDS011;55104;47.356;19.448;2022-09-09T11:15:08;2.93;;;0.80;;
68273;SDS011;55104;47.356;19.448;2022-09-09T11:18:19;1.73;;;0.60;;
68273;SDS011;55104;47.356;19.448;2022-09-09T11:21:28;2.22;;;0.70;;
68273;SDS011;55104;47.356;19.448;2022-09-09T11:24:38;1.67;;;0.60;;
68273;SDS011;55104;47.356;19.448;2022-09-09T11:28:08;2.88;;;0.70;;
68273;SDS011;55104;47.356;19.448;2022-09-09T11:41:33;3.35;;;0.90;;
68273;SDS011;55104;47.356;19.448;2022-09-09T11:44:38;2.28;;;0.60;;
68273;SDS011;55104;47.356;19.448;2022-09-09T11:47:40;2.53;;;0.70;;
68273;SDS011;55104;47.356;19.448;2022-09-09T11:50:58;3.90;;;1.00;;
68273;SDS011;55104;47.356;19.448;2022-09-09T11:54:27;3.03;;;0.80;;
68273;SDS011;55104;47.356;19.448;2022-09-09T11:57:32;2.05;;;0.60;;
68273;SDS011;55104;47.356;19.448;2022-09-09T12:00:41;2.72;;;0.57;;
68273;SDS011;55104;47.356;19.448;2022-09-09T12:03:48;2.20;;;0.80;;
68273;SDS011;55104;47.356;19.448;2022-09-09T12:07:02;2.30;;;0.80;;
68273;SDS011;55104;47.356;19.448;2022-09-09T12:16:30;2.15;;;0.47;;
68273;SDS011;55104;47.356;19.448;2022-09-09T12:19:35;2.50;;;0.67;;
68273;SDS011;55104;47.356;19.448;2022-09-09T12:32:15;1.70;;;0.63;;
68273;SDS011;55104;47.356;19.448;2022-09-09T12:35:20;2.30;;;0.70;;
68273;SDS011;55104;47.356;19.448;2022-09-09T12:38:34;2.37;;;0.73;;
68273;SDS011;55104;47.356;19.448;2022-09-09T12:41:37;3.97;;;0.60;;
68273;SDS011;55104;47.356;19.448;2022-09-09T12:44:39;3.63;;;0.70;;
68273;SDS011;55104;47.356;19.448;2022-09-09T12:48:00;3.58;;;0.80;;
68273;SDS011;55104;47.356;19.448;2022-09-09T12:51:16;2.27;;;0.80;;
68273;SDS011;55104;47.356;19.448;2022-09-09T12:54:22;3.03;;;0.50;;
68273;SDS011;55104;47.356;19.448;2022-09-09T12:57:25;2.90;;;0.70;;
68273;SDS011;55104;47.356;19.448;2022-09-09T13:00:32;4.25;;;0.80;;
68273;SDS011;55104;47.356;19.448;2022-09-09T13:03:41;2.97;;;0.80;;
68273;SDS011;55104;47.356;19.448;2022-09-09T13:06:44;2.83;;;0.60;;
68273;SDS011;55104;47.356;19.448;2022-09-09T13:09:47;2.00;;;0.70;;
68273;SDS011;55104;47.356;19.448;2022-09-09T13:12:50;1.38;;;0.50;;
68273;SDS011;55104;47.356;19.448;2022-09-09T13:15:53;1.27;;;0.45;;
68273;SDS011;55104;47.356;19.448;2022-09-09T13:19:07;1.63;;;0.50;;
68273;SDS011;55104;47.356;19.448;2022-09-09T13:25:40;2.87;;;0.87;;
68273;SDS011;55104;47.356;19.448;2022-09-09T13:28:44;2.17;;;0.70;;
68273;SDS011;55104;47.356;19.448;2022-09-09T13:31:48;1.60;;;0.60;;
68273;SDS011;55104;47.356;19.448;2022-09-09T13:34:55;2.28;;;0.60;;
68273;SDS011;55104;47.356;19.448;2022-09-09T13:38:06;2.67;;;0.70;;
68273;SDS011;55104;47.356;19.448;2022-09-09T13:41:10;1.93;;;0.60;;
68273;SDS011;55104;47.356;19.448;2022-09-09T13:47:43;1.70;;;0.50;;
68273;SDS011;55104;47.356;19.448;2022-09-09T13:50:53;1.90;;;0.73;;
68273;SDS011;55104;47.356;19.448;2022-09-09T13:53:56;3.93;;;0.70;;
68273;SDS011;55104;47.356;19.448;2022-09-09T13:56:59;2.17;;;0.50;;
68273;SDS011;55104;47.356;19.448;2022-09-09T14:00:02;1.77;;;0.70;;
68273;SDS011;55104;47.356;19.448;2022-09-09T14:03:07;2.92;;;0.55;;
68273;SDS011;55104;47.356;19.448;2022-09-09T14:06:10;1.75;;;0.65;;
68273;SDS011;55104;47.356;19.448;2022-09-09T14:09:13;1.80;;;0.70;;
68273;SDS011;55104;47.356;19.448;2022-09-09T14:12:17;2.13;;;0.80;;
68273;SDS011;55104;47.356;19.448;2022-09-09T14:15:19;2.67;;;0.60;;
68273;SDS011;55104;47.356;19.448;2022-09-09T14:18:23;1.77;;;0.60;;
68273;SDS011;55104;47.356;19.448;2022-09-09T14:21:27;2.58;;;0.60;;
68273;SDS011;55104;47.356;19.448;2022-09-09T14:24:29;2.60;;;0.60;;
68273;SDS011;55104;47.356;19.448;2022-09-09T14:27:31;2.93;;;0.70;;
68273;SDS011;55104;47.356;19.448;2022-09-09T14:30:34;2.65;;;0.63;;
68273;SDS011;55104;47.356;19.448;2022-09-09T14:33:36;2.10;;;0.60;;
68273;SDS011;55104;47.356;19.448;2022-09-09T14:36:38;1.88;;;0.60;;
68273;SDS011;55104;47.356;19.448;2022-09-09T14:39:40;4.77;;;0.50;;
68273;SDS011;55104;47.356;19.448;2022-09-09T14:42:42;2.20;;;0.50;;
68273;SDS011;55104;47.356;19.448;2022-09-09T14:45:44;2.33;;;0.60;;
68273;SDS011;55104;47.356;19.448;2022-09-09T14:48:46;3.20;;;0.50;;
68273;SDS011;55104;47.356;19.448;2022-09-09T14:51:50;1.65;;;0.52;;
68273;SDS011;55104;47.356;19.448;2022-09-09T14:54:52;2.63;;;0.70;;
68273;SDS011;55104;47.356;19.448;2022-09-09T14:57:54;2.23;;;0.60;;
68273;SDS011;55104;47.356;19.448;2022-09-09T15:01:01;3.75;;;1.05;;
68273;SDS011;55104;47.356;19.448;2022-09-09T15:04:05;4.78;;;0.93;;
68273;SDS011;55104;47.356;19.448;2022-09-09T15:07:07;2.35;;;0.60;;
68273;SDS011;55104;47.356;19.448;2022-09-09T15:10:09;2.70;;;0.70;;
68273;SDS011;55104;47.356;19.448;2022-09-09T15:13:14;1.63;;;0.43;;
68273;SDS011;55104;47.356;19.448;2022-09-09T15:16:19;2.72;;;0.60;;
68273;SDS011;55104;47.356;19.448;2022-09-09T15:19:23;1.95;;;0.70;;
68273;SDS011;55104;47.356;19.448;2022-09-09T15:22:25;3.15;;;0.55;;
68273;SDS011;55104;47.356;19.448;2022-09-09T15:25:27;3.53;;;0.90;;
68273;SDS011;55104;47.356;19.448;2022-09-09T15:28:30;2.47;;;0.70;;
68273;SDS011;55104;47.356;19.448;2022-09-09T15:31:35;4.80;;;0.70;;
68273;SDS011;55104;47.356;19.448;2022-09-09T15:34:37;4.68;;;0.95;;
68273;SDS011;55104;47.356;19.448;2022-09-09T15:37:40;5.07;;;0.80;;
68273;SDS011;55104;47.356;19.448;2022-09-09T15:40:42;4.87;;;0.90;;
68273;SDS011;55104;47.356;19.448;2022-09-09T15:43:45;3.77;;;1.07;;
68273;SDS011;55104;47.356;19.448;2022-09-09T15:46:49;3.45;;;0.90;;
68273;SDS011;55104;47.356;19.448;2022-09-09T15:49:53;3.83;;;0.90;;
68273;SDS011;55104;47.356;19.448;2022-09-09T15:52:55;2.30;;;0.85;;
68273;SDS011;55104;47.356;19.448;2022-09-09T15:55:57;2.67;;;0.83;;
68273;SDS011;55104;47.356;19.448;2022-09-09T15:58:59;2.97;;;0.90;;
68273;SDS011;55104;47.356;19.448;2022-09-09T16:02:03;2.25;;;0.90;;
68273;SDS011;55104;47.356;19.448;2022-09-09T16:05:06;2.83;;;0.88;;
68273;SDS011;55104;47.356;19.448;2022-09-09T16:08:09;4.50;;;0.70;;
68273;SDS011;55104;47.356;19.448;2022-09-09T16:11:12;3.80;;;0.90;;
68273;SDS011;55104;47.356;19.448;2022-09-09T16:14:18;3.23;;;0.90;;
68273;SDS011;55104;47.356;19.448;2022-09-09T16:17:20;4.15;;;1.10;;
68273;SDS011;55104;47.356;19.448;2022-09-09T16:20:22;2.88;;;0.80;;
68273;SDS011;55104;47.356;19.448;2022-09-09T16:23:24;3.90;;;1.00;;
68273;SDS011;55104;47.356;19.448;2022-09-09T16:26:27;3.60;;;0.90;;
68273;SDS011;55104;47.356;19.448;2022-09-09T16:29:30;3.37;;;0.93;;
68273;SDS011;55104;47.356;19.448;2022-09-09T16:32:32;4.22;;;0.77;;
68273;SDS011;55104;47.356;19.448;2022-09-09T16:35:36;3.30;;;0.90;;
68273;SDS011;55104;47.356;19.448;2022-09-09T16:38:39;5.00;;;1.00;;
68273;SDS011;55104;47.356;19.448;2022-09-09T16:41:41;3.37;;;0.83;;
68273;SDS011;55104;47.356;19.448;2022-09-09T16:44:45;3.37;;;1.10;;
68273;SDS011;55104;47.356;19.448;2022-09-09T16:47:47;3.30;;;0.90;;
68273;SDS011;55104;47.356;19.448;2022-09-09T16:50:50;3.60;;;1.00;;
68273;SDS011;55104;47.356;19.448;2022-09-09T16:53:52;4.63;;;0.88;;
68273;SDS011;55104;47.356;19.448;2022-09-09T16:56:56;3.53;;;0.93;;
68273;SDS011;55104;47.356;19.448;2022-09-09T16:59:59;4.57;;;1.30;;
68273;SDS011;55104;47.356;19.448;2022-09-09T17:03:01;3.80;;;1.05;;
68273;SDS011;55104;47.356;19.448;2022-09-09T17:06:08;5.47;;;1.20;;
68273;SDS011;55104;47.356;19.448;2022-09-09T17:09:11;5.40;;;1.35;;
68273;SDS011;55104;47.356;19.448;2022-09-09T17:12:14;4.17;;;1.20;;
68273;SDS011;55104;47.356;19.448;2022-09-09T17:15:17;5.90;;;1.47;;
68273;SDS011;55104;47.356;19.448;2022-09-09T17:18:20;5.75;;;1.60;;
68273;SDS011;55104;47.356;19.448;2022-09-09T17:21:23;7.75;;;1.60;;
68273;SDS011;55104;47.356;19.448;2022-09-09T17:24:29;4.32;;;1.50;;
68273;SDS011;55104;47.356;19.448;2022-09-09T17:27:31;6.20;;;2.30;;
68273;SDS011;55104;47.356;19.448;2022-09-09T17:30:34;6.10;;;1.63;;
68273;SDS011;55104;47.356;19.448;2022-09-09T17:33:38;6.05;;;1.50;;
68273;SDS011;55104;47.356;19.448;2022-09-09T17:36:41;8.00;;;3.33;;
68273;SDS011;55104;47.356;19.448;2022-09-09T17:39:43;8.60;;;3.47;;
68273;SDS011;55104;47.356;19.448;2022-09-09T17:42:46;8.93;;;3.23;;
68273;SDS011;55104;47.356;19.448;2022-09-09T17:45:48;6.03;;;2.30;;
68273;SDS011;55104;47.356;19.448;2022-09-09T17:48:52;6.68;;;2.30;;
68273;SDS011;55104;47.356;19.448;2022-09-09T17:51:57;6.45;;;2.33;;
68273;SDS011;55104;47.356;19.448;2022-09-09T17:55:00;6.05;;;1.73;;
68273;SDS011;55104;47.356;19.448;2022-09-09T17:58:02;6.33;;;1.97;;
68273;SDS011;55104;47.356;19.448;2022-09-09T18:01:05;7.50;;;2.70;;
68273;SDS011;55104;47.356;19.448;2022-09-09T18:04:09;6.43;;;2.15;;
68273;SDS011;55104;47.356;19.448;2022-09-09T18:07:14;7.30;;;2.15;;
68273;SDS011;55104;47.356;19.448;2022-09-09T18:10:16;6.90;;;2.05;;
68273;SDS011;55104;47.356;19.448;2022-09-09T18:13:18;6.63;;;1.97;;
68273;SDS011;55104;47.356;19.448;2022-09-09T18:16:21;5.07;;;1.90;;
68273;SDS011;55104;47.356;19.448;2022-09-09T18:19:24;7.38;;;3.20;;
68273;SDS011;55104;47.356;19.448;2022-09-09T18:22:27;10.15;;;3.95;;
68273;SDS011;55104;47.356;19.448;2022-09-09T18:25:38;11.70;;;5.25;;
68273;SDS011;55104;47.356;19.448;2022-09-09T18:28:41;10.50;;;4.20;;
68273;SDS011;55104;47.356;19.448;2022-09-09T18:31:44;11.97;;;4.70;;
68273;SDS011;55104;47.356;19.448;2022-09-09T18:34:48;10.63;;;4.88;;
68273;SDS011;55104;47.356;19.448;2022-09-09T18:37:56;9.60;;;4.90;;
68273;SDS011;55104;47.356;19.448;2022-09-09T18:40:58;11.35;;;4.20;;
68273;SDS011;55104;47.356;19.448;2022-09-09T18:44:01;8.00;;;4.00;;
68273;SDS011;55104;47.356;19.448;2022-09-09T18:47:09;9.80;;;4.37;;
68273;SDS011;55104;47.356;19.448;2022-09-09T18:50:11;8.32;;;3.80;;
68273;SDS011;55104;47.356;19.448;2022-09-09T18:53:13;8.13;;;3.65;;
68273;SDS011;55104;47.356;19.448;2022-09-09T18:56:16;6.72;;;2.90;;
68273;SDS011;55104;47.356;19.448;2022-09-09T18:59:20;8.47;;;3.00;;
68273;SDS011;55104;47.356;19.448;2022-09-09T19:02:24;7.13;;;3.30;;
68273;SDS011;55104;47.356;19.448;2022-09-09T19:05:26;7.93;;;3.38;;
68273;SDS011;55104;47.356;19.448;2022-09-09T19:08:28;9.35;;;4.22;;
68273;SDS011;55104;47.356;19.448;2022-09-09T19:11:30;8.35;;;4.38;;
68273;SDS011;55104;47.356;19.448;2022-09-09T19:14:33;8.50;;;4.60;;
68273;SDS011;55104;47.356;19.448;2022-09-09T19:17:35;12.07;;;5.03;;
68273;SDS011;55104;47.356;19.448;2022-09-09T19:20:37;9.98;;;5.25;;
68273;SDS011;55104;47.356;19.448;2022-09-09T19:23:39;10.90;;;5.50;;
68273;SDS011;55104;47.356;19.448;2022-09-09T19:26:43;10.77;;;6.28;;
68273;SDS011;55104;47.356;19.448;2022-09-09T19:29:47;9.83;;;5.83;;
68273;SDS011;55104;47.356;19.448;2022-09-09T19:32:49;12.87;;;6.83;;
68273;SDS011;55104;47.356;19.448;2022-09-09T19:35:58;11.65;;;5.95;;
68273;SDS011;55104;47.356;19.448;2022-09-09T19:39:03;11.27;;;6.15;;
68273;SDS011;55104;47.356;19.448;2022-09-09T19:42:06;10.82;;;6.28;;
68273;SDS011;55104;47.356;19.448;2022-09-09T19:45:08;11.20;;;6.13;;
68273;SDS011;55104;47.356;19.448;2022-09-09T19:48:11;12.27;;;6.70;;
68273;SDS011;55104;47.356;19.448;2022-09-09T19:51:16;11.35;;;6.75;;
68273;SDS011;55104;47.356;19.448;2022-09-09T19:54:19;12.68;;;7.00;;
68273;SDS011;55104;47.356;19.448;2022-09-09T19:57:21;10.85;;;6.60;;
68273;SDS011;55104;47.356;19.448;2022-09-09T20:00:24;12.13;;;6.73;;
68273;SDS011;55104;47.356;19.448;2022-09-09T20:03:27;10.97;;;6.17;;
68273;SDS011;55104;47.356;19.448;2022-09-09T20:06:32;13.70;;;6.60;;
68273;SDS011;55104;47.356;19.448;2022-09-09T20:09:35;10.15;;;6.25;;